sensor_id;sensor_type;location;lat;lon;timestamp;P1;durP1;ratioP1;P2;durP2;ratioP2
19301;SDS011;9785;59.362;12.152;2023-03-01T00:01:56;1.40;;;1.30;;
19301;SDS011;9785;59.362;12.152;2023-03-01T00:04:29;2.27;;;1.30;;
19301;SDS011;9785;59.362;12.152;2023-03-01T00:06:58;3.00;;;1.20;;
19301;SDS011;9785;59.362;12.152;2023-03-01T00:09:27;1.80;;;1.60;;
19301;SDS011;9785;59.362;12.152;2023-03-01T00:11:58;1.63;;;1.30;;
19301;SDS011;9785;59.362;12.152;2023-03-01T00:14:28;1.20;;;1.10;;
19301;SDS011;9785;59.362;12.152;2023-03-01T00:16:59;1.93;;;1.03;;
19301;SDS011;9785;59.362;12.152;2023-03-01T00:19:29;2.63;;;0.70;;
19301;SDS011;9785;59.362;12.152;2023-03-01T00:22:00;0.70;;;0.70;;
19301;SDS011;9785;59.362;12.152;2023-03-01T00:24:29;1.20;;;1.10;;
19301;SDS011;9785;59.362;12.152;2023-03-01T00:27:02;1.70;;;0.77;;
19301;SDS011;9785;59.362;12.152;2023-03-01T00:29:31;0.50;;;0.50;;
19301;SDS011;9785;59.362;12.152;2023-03-01T00:32:03;0.80;;;0.80;;
19301;SDS011;9785;59.362;12.152;2023-03-01T00:34:36;0.90;;;0.90;;
19301;SDS011;9785;59.362;12.152;2023-03-01T00:37:07;1.20;;;1.10;;
19301;SDS011;9785;59.362;12.152;2023-03-01T00:39:38;1.20;;;1.07;;
19301;SDS011;9785;59.362;12.152;2023-03-01T00:42:13;0.97;;;0.90;;
19301;SDS011;9785;59.362;12.152;2023-03-01T00:44:44;0.80;;;0.80;;
19301;SDS011;9785;59.362;12.152;2023-03-01T00:47:13;1.07;;;1.07;;
19301;SDS011;9785;59.362;12.152;2023-03-01T00:49:43;1.10;;;0.80;;
19301;SDS011;9785;59.362;12.152;2023-03-01T00:52:13;0.90;;;0.83;;
19301;SDS011;9785;59.362;12.152;2023-03-01T00:54:42;1.20;;;0.90;;
19301;SDS011;9785;59.362;12.152;2023-03-01T00:57:13;2.80;;;1.03;;
19301;SDS011;9785;59.362;12.152;2023-03-01T00:59:44;0.73;;;0.73;;
19301;SDS011;9785;59.362;12.152;2023-03-01T01:02:14;0.90;;;0.90;;
19301;SDS011;9785;59.362;12.152;2023-03-01T01:04:45;0.90;;;0.90;;
19301;SDS011;9785;59.362;12.152;2023-03-01T01:07:15;1.07;;;0.90;;
19301;SDS011;9785;59.362;12.152;2023-03-01T01:09:48;1.30;;;0.90;;
19301;SDS011;9785;59.362;12.152;2023-03-01T01:12:19;1.37;;;0.90;;
19301;SDS011;9785;59.362;12.152;2023-03-01T01:14:49;1.50;;;0.60;;
19301;SDS011;9785;59.362;12.152;2023-03-01T01:17:18;0.73;;;0.73;;
19301;SDS011;9785;59.362;12.152;2023-03-01T01:19:47;0.70;;;0.70;;
19301;SDS011;9785;59.362;12.152;2023-03-01T01:22:17;1.67;;;0.57;;
19301;SDS011;9785;59.362;12.152;2023-03-01T01:24:46;1.87;;;0.77;;
19301;SDS011;9785;59.362;12.152;2023-03-01T01:27:17;2.33;;;0.70;;
19301;SDS011;9785;59.362;12.152;2023-03-01T01:29:53;0.80;;;0.80;;
19301;SDS011;9785;59.362;12.152;2023-03-01T01:32:22;0.67;;;0.67;;
19301;SDS011;9785;59.362;12.152;2023-03-01T01:34:54;3.23;;;1.07;;
19301;SDS011;9785;59.362;12.152;2023-03-01T01:37:23;0.70;;;0.70;;
19301;SDS011;9785;59.362;12.152;2023-03-01T01:39:58;0.50;;;0.50;;
19301;SDS011;9785;59.362;12.152;2023-03-01T01:42:28;1.60;;;0.90;;
19301;SDS011;9785;59.362;12.152;2023-03-01T01:45:26;1.50;;;0.97;;
19301;SDS011;9785;59.362;12.152;2023-03-01T01:47:57;1.50;;;1.00;;
19301;SDS011;9785;59.362;12.152;2023-03-01T01:50:27;0.70;;;0.70;;
19301;SDS011;9785;59.362;12.152;2023-03-01T01:53:05;2.00;;;0.87;;
19301;SDS011;9785;59.362;12.152;2023-03-01T01:55:36;1.40;;;1.10;;
19301;SDS011;9785;59.362;12.152;2023-03-01T01:58:08;1.87;;;0.80;;
19301;SDS011;9785;59.362;12.152;2023-03-01T02:00:41;1.80;;;0.93;;
19301;SDS011;9785;59.362;12.152;2023-03-01T02:03:12;0.90;;;0.83;;
19301;SDS011;9785;59.362;12.152;2023-03-01T02:05:46;1.10;;;1.00;;
19301;SDS011;9785;59.362;12.152;2023-03-01T02:08:22;1.60;;;0.70;;
19301;SDS011;9785;59.362;12.152;2023-03-01T02:10:53;2.17;;;0.80;;
19301;SDS011;9785;59.362;12.152;2023-03-01T02:13:24;1.07;;;0.90;;
19301;SDS011;9785;59.362;12.152;2023-03-01T02:15:57;1.00;;;0.80;;
19301;SDS011;9785;59.362;12.152;2023-03-01T02:18:29;0.87;;;0.80;;
19301;SDS011;9785;59.362;12.152;2023-03-01T02:21:02;0.87;;;0.87;;
19301;SDS011;9785;59.362;12.152;2023-03-01T02:23:35;0.70;;;0.70;;
19301;SDS011;9785;59.362;12.152;2023-03-01T02:26:07;0.70;;;0.70;;
19301;SDS011;9785;59.362;12.152;2023-03-01T02:28:42;0.80;;;0.80;;
19301;SDS011;9785;59.362;12.152;2023-03-01T02:31:14;1.10;;;1.10;;
19301;SDS011;9785;59.362;12.152;2023-03-01T02:34:03;2.20;;;0.90;;
19301;SDS011;9785;59.362;12.152;2023-03-01T02:36:36;1.20;;;1.10;;
19301;SDS011;9785;59.362;12.152;2023-03-01T02:39:08;0.73;;;0.73;;
19301;SDS011;9785;59.362;12.152;2023-03-01T02:41:44;2.03;;;0.73;;
19301;SDS011;9785;59.362;12.152;2023-03-01T02:44:16;0.73;;;0.73;;
19301;SDS011;9785;59.362;12.152;2023-03-01T02:46:47;0.70;;;0.70;;
19301;SDS011;9785;59.362;12.152;2023-03-01T02:49:23;1.07;;;0.87;;
19301;SDS011;9785;59.362;12.152;2023-03-01T02:51:54;0.93;;;0.90;;
19301;SDS011;9785;59.362;12.152;2023-03-01T02:54:28;2.40;;;0.90;;
19301;SDS011;9785;59.362;12.152;2023-03-01T02:57:02;2.63;;;0.77;;
19301;SDS011;9785;59.362;12.152;2023-03-01T02:59:34;0.97;;;0.63;;
19301;SDS011;9785;59.362;12.152;2023-03-01T03:02:18;0.70;;;0.70;;
19301;SDS011;9785;59.362;12.152;2023-03-01T03:05:09;1.53;;;0.60;;
19301;SDS011;9785;59.362;12.152;2023-03-01T03:07:41;2.50;;;0.70;;
19301;SDS011;9785;59.362;12.152;2023-03-01T03:10:14;0.60;;;0.60;;
19301;SDS011;9785;59.362;12.152;2023-03-01T03:12:48;2.63;;;0.60;;
19301;SDS011;9785;59.362;12.152;2023-03-01T03:15:20;1.13;;;0.60;;
19301;SDS011;9785;59.362;12.152;2023-03-01T03:17:51;2.00;;;0.60;;
19301;SDS011;9785;59.362;12.152;2023-03-01T03:20:21;0.70;;;0.70;;
19301;SDS011;9785;59.362;12.152;2023-03-01T03:22:52;0.77;;;0.77;;
19301;SDS011;9785;59.362;12.152;2023-03-01T03:25:23;0.70;;;0.70;;
19301;SDS011;9785;59.362;12.152;2023-03-01T03:27:53;0.60;;;0.60;;
19301;SDS011;9785;59.362;12.152;2023-03-01T03:30:28;2.10;;;0.77;;
19301;SDS011;9785;59.362;12.152;2023-03-01T03:32:59;1.07;;;0.63;;
19301;SDS011;9785;59.362;12.152;2023-03-01T03:35:31;0.50;;;0.50;;
19301;SDS011;9785;59.362;12.152;2023-03-01T03:38:03;1.20;;;0.90;;
19301;SDS011;9785;59.362;12.152;2023-03-01T03:40:37;0.40;;;0.40;;
19301;SDS011;9785;59.362;12.152;2023-03-01T03:43:07;0.50;;;0.50;;
19301;SDS011;9785;59.362;12.152;2023-03-01T03:45:38;0.60;;;0.60;;
19301;SDS011;9785;59.362;12.152;2023-03-01T03:48:09;0.60;;;0.60;;
19301;SDS011;9785;59.362;12.152;2023-03-01T03:50:39;0.60;;;0.60;;
19301;SDS011;9785;59.362;12.152;2023-03-01T03:53:13;0.80;;;0.60;;
19301;SDS011;9785;59.362;12.152;2023-03-01T03:55:44;0.70;;;0.57;;
19301;SDS011;9785;59.362;12.152;2023-03-01T03:58:17;1.50;;;0.40;;
19301;SDS011;9785;59.362;12.152;2023-03-01T04:00:50;0.50;;;0.50;;
19301;SDS011;9785;59.362;12.152;2023-03-01T04:03:21;0.40;;;0.40;;
19301;SDS011;9785;59.362;12.152;2023-03-01T04:05:51;0.50;;;0.50;;
19301;SDS011;9785;59.362;12.152;2023-03-01T04:08:22;0.50;;;0.50;;
19301;SDS011;9785;59.362;12.152;2023-03-01T04:10:51;0.60;;;0.40;;
19301;SDS011;9785;59.362;12.152;2023-03-01T04:13:24;1.20;;;1.03;;
19301;SDS011;9785;59.362;12.152;2023-03-01T04:15:55;0.87;;;0.60;;
19301;SDS011;9785;59.362;12.152;2023-03-01T04:18:27;0.50;;;0.50;;
19301;SDS011;9785;59.362;12.152;2023-03-01T04:20:59;0.53;;;0.53;;
19301;SDS011;9785;59.362;12.152;2023-03-01T04:23:29;1.13;;;0.30;;
19301;SDS011;9785;59.362;12.152;2023-03-01T04:25:59;0.33;;;0.33;;
19301;SDS011;9785;59.362;12.152;2023-03-01T04:28:29;0.40;;;0.40;;
19301;SDS011;9785;59.362;12.152;2023-03-01T04:31:02;0.30;;;0.30;;
19301;SDS011;9785;59.362;12.152;2023-03-01T04:33:39;0.40;;;0.40;;
19301;SDS011;9785;59.362;12.152;2023-03-01T04:36:11;0.67;;;0.30;;
19301;SDS011;9785;59.362;12.152;2023-03-01T04:38:43;0.30;;;0.30;;
19301;SDS011;9785;59.362;12.152;2023-03-01T04:41:15;0.70;;;0.70;;
19301;SDS011;9785;59.362;12.152;2023-03-01T04:43:44;1.33;;;0.50;;
19301;SDS011;9785;59.362;12.152;2023-03-01T04:46:18;0.63;;;0.63;;
19301;SDS011;9785;59.362;12.152;2023-03-01T04:48:50;0.80;;;0.80;;
19301;SDS011;9785;59.362;12.152;2023-03-01T04:51:19;1.10;;;0.70;;
19301;SDS011;9785;59.362;12.152;2023-03-01T04:53:48;0.50;;;0.50;;
19301;SDS011;9785;59.362;12.152;2023-03-01T04:56:18;0.50;;;0.50;;
19301;SDS011;9785;59.362;12.152;2023-03-01T04:58:52;1.30;;;0.60;;
19301;SDS011;9785;59.362;12.152;2023-03-01T05:01:24;0.60;;;0.60;;
19301;SDS011;9785;59.362;12.152;2023-03-01T05:03:55;0.97;;;0.50;;
19301;SDS011;9785;59.362;12.152;2023-03-01T05:06:31;0.40;;;0.40;;
19301;SDS011;9785;59.362;12.152;2023-03-01T05:09:02;1.03;;;0.70;;
19301;SDS011;9785;59.362;12.152;2023-03-01T05:11:31;0.43;;;0.43;;
19301;SDS011;9785;59.362;12.152;2023-03-01T05:14:04;0.43;;;0.43;;
19301;SDS011;9785;59.362;12.152;2023-03-01T05:16:36;0.60;;;0.60;;
19301;SDS011;9785;59.362;12.152;2023-03-01T05:19:08;0.60;;;0.60;;
19301;SDS011;9785;59.362;12.152;2023-03-01T05:21:42;0.40;;;0.40;;
19301;SDS011;9785;59.362;12.152;2023-03-01T05:24:32;0.40;;;0.40;;
19301;SDS011;9785;59.362;12.152;2023-03-01T05:27:02;0.40;;;0.40;;
19301;SDS011;9785;59.362;12.152;2023-03-01T05:29:31;0.90;;;0.70;;
19301;SDS011;9785;59.362;12.152;2023-03-01T05:32:03;1.23;;;0.50;;
19301;SDS011;9785;59.362;12.152;2023-03-01T05:34:34;0.50;;;0.50;;
19301;SDS011;9785;59.362;12.152;2023-03-01T05:37:04;0.90;;;0.83;;
19301;SDS011;9785;59.362;12.152;2023-03-01T05:39:36;0.40;;;0.40;;
19301;SDS011;9785;59.362;12.152;2023-03-01T05:42:06;0.70;;;0.70;;
19301;SDS011;9785;59.362;12.152;2023-03-01T05:44:38;1.93;;;0.70;;
19301;SDS011;9785;59.362;12.152;2023-03-01T05:47:09;0.60;;;0.60;;
19301;SDS011;9785;59.362;12.152;2023-03-01T05:49:38;1.70;;;0.47;;
19301;SDS011;9785;59.362;12.152;2023-03-01T05:52:09;0.67;;;0.57;;
19301;SDS011;9785;59.362;12.152;2023-03-01T05:54:39;0.50;;;0.50;;
19301;SDS011;9785;59.362;12.152;2023-03-01T05:57:08;1.80;;;0.70;;
19301;SDS011;9785;59.362;12.152;2023-03-01T05:59:39;0.40;;;0.40;;
19301;SDS011;9785;59.362;12.152;2023-03-01T06:02:10;2.93;;;0.93;;
19301;SDS011;9785;59.362;12.152;2023-03-01T06:04:40;0.70;;;0.70;;
19301;SDS011;9785;59.362;12.152;2023-03-01T06:07:11;0.70;;;0.70;;
19301;SDS011;9785;59.362;12.152;2023-03-01T06:09:43;0.70;;;0.70;;
19301;SDS011;9785;59.362;12.152;2023-03-01T06:12:13;0.77;;;0.77;;
19301;SDS011;9785;59.362;12.152;2023-03-01T06:14:44;0.80;;;0.80;;
19301;SDS011;9785;59.362;12.152;2023-03-01T06:17:17;0.87;;;0.87;;
19301;SDS011;9785;59.362;12.152;2023-03-01T06:19:47;0.87;;;0.87;;
19301;SDS011;9785;59.362;12.152;2023-03-01T06:22:16;1.13;;;0.97;;
19301;SDS011;9785;59.362;12.152;2023-03-01T06:24:46;0.97;;;0.90;;
19301;SDS011;9785;59.362;12.152;2023-03-01T06:27:17;1.20;;;0.67;;
19301;SDS011;9785;59.362;12.152;2023-03-01T06:29:46;1.00;;;0.67;;
19301;SDS011;9785;59.362;12.152;2023-03-01T06:32:17;1.30;;;0.90;;
19301;SDS011;9785;59.362;12.152;2023-03-01T06:34:47;1.80;;;1.10;;
19301;SDS011;9785;59.362;12.152;2023-03-01T06:37:20;3.00;;;0.97;;
19301;SDS011;9785;59.362;12.152;2023-03-01T06:39:51;0.60;;;0.60;;
19301;SDS011;9785;59.362;12.152;2023-03-01T06:42:22;0.80;;;0.80;;
19301;SDS011;9785;59.362;12.152;2023-03-01T06:44:52;0.77;;;0.77;;
19301;SDS011;9785;59.362;12.152;2023-03-01T06:47:25;0.77;;;0.77;;
19301;SDS011;9785;59.362;12.152;2023-03-01T06:49:54;0.97;;;0.70;;
19301;SDS011;9785;59.362;12.152;2023-03-01T06:52:26;1.07;;;0.60;;
19301;SDS011;9785;59.362;12.152;2023-03-01T06:54:57;1.10;;;0.90;;
19301;SDS011;9785;59.362;12.152;2023-03-01T06:57:27;4.73;;;0.73;;
19301;SDS011;9785;59.362;12.152;2023-03-01T06:59:56;1.20;;;0.90;;
19301;SDS011;9785;59.362;12.152;2023-03-01T07:02:30;0.80;;;0.80;;
19301;SDS011;9785;59.362;12.152;2023-03-01T07:05:00;1.10;;;1.07;;
19301;SDS011;9785;59.362;12.152;2023-03-01T07:07:31;1.90;;;1.37;;
19301;SDS011;9785;59.362;12.152;2023-03-01T07:10:00;2.20;;;1.20;;
19301;SDS011;9785;59.362;12.152;2023-03-01T07:12:32;4.20;;;1.37;;
19301;SDS011;9785;59.362;12.152;2023-03-01T07:15:03;2.10;;;1.67;;
19301;SDS011;9785;59.362;12.152;2023-03-01T07:17:37;3.57;;;1.20;;
19301;SDS011;9785;59.362;12.152;2023-03-01T07:20:08;0.97;;;0.97;;
19301;SDS011;9785;59.362;12.152;2023-03-01T07:22:39;1.10;;;1.00;;
19301;SDS011;9785;59.362;12.152;2023-03-01T07:25:09;4.53;;;1.50;;
19301;SDS011;9785;59.362;12.152;2023-03-01T07:27:39;1.73;;;1.63;;
19301;SDS011;9785;59.362;12.152;2023-03-01T07:30:10;1.57;;;1.00;;
19301;SDS011;9785;59.362;12.152;2023-03-01T07:32:47;1.30;;;1.20;;
19301;SDS011;9785;59.362;12.152;2023-03-01T07:35:17;1.37;;;1.10;;
19301;SDS011;9785;59.362;12.152;2023-03-01T07:37:47;1.60;;;1.50;;
19301;SDS011;9785;59.362;12.152;2023-03-01T07:40:17;1.30;;;1.20;;
19301;SDS011;9785;59.362;12.152;2023-03-01T07:42:47;2.13;;;1.40;;
19301;SDS011;9785;59.362;12.152;2023-03-01T07:45:19;1.60;;;1.50;;
19301;SDS011;9785;59.362;12.152;2023-03-01T07:47:51;1.07;;;1.07;;
19301;SDS011;9785;59.362;12.152;2023-03-01T07:50:21;2.20;;;1.40;;
19301;SDS011;9785;59.362;12.152;2023-03-01T07:52:51;1.50;;;1.40;;
19301;SDS011;9785;59.362;12.152;2023-03-01T07:55:22;1.60;;;1.50;;
19301;SDS011;9785;59.362;12.152;2023-03-01T07:57:51;3.13;;;1.20;;
19301;SDS011;9785;59.362;12.152;2023-03-01T08:00:21;1.30;;;1.20;;
19301;SDS011;9785;59.362;12.152;2023-03-01T08:02:52;1.33;;;1.17;;
19301;SDS011;9785;59.362;12.152;2023-03-01T08:05:22;1.73;;;1.10;;
19301;SDS011;9785;59.362;12.152;2023-03-01T08:07:52;1.50;;;1.10;;
19301;SDS011;9785;59.362;12.152;2023-03-01T08:10:21;2.73;;;1.47;;
19301;SDS011;9785;59.362;12.152;2023-03-01T08:12:52;1.20;;;1.20;;
19301;SDS011;9785;59.362;12.152;2023-03-01T08:15:23;1.10;;;1.00;;
19301;SDS011;9785;59.362;12.152;2023-03-01T08:17:59;1.33;;;1.10;;
19301;SDS011;9785;59.362;12.152;2023-03-01T08:20:29;1.20;;;1.10;;
19301;SDS011;9785;59.362;12.152;2023-03-01T08:22:58;1.10;;;1.00;;
19301;SDS011;9785;59.362;12.152;2023-03-01T08:25:28;1.90;;;1.20;;
19301;SDS011;9785;59.362;12.152;2023-03-01T08:27:59;1.73;;;0.97;;
19301;SDS011;9785;59.362;12.152;2023-03-01T08:30:28;0.90;;;0.90;;
19301;SDS011;9785;59.362;12.152;2023-03-01T08:32:59;0.60;;;0.60;;
19301;SDS011;9785;59.362;12.152;2023-03-01T08:35:30;1.70;;;0.97;;
19301;SDS011;9785;59.362;12.152;2023-03-01T08:38:00;0.83;;;0.83;;
19301;SDS011;9785;59.362;12.152;2023-03-01T08:40:34;0.70;;;0.70;;
19301;SDS011;9785;59.362;12.152;2023-03-01T08:43:04;2.77;;;0.60;;
19301;SDS011;9785;59.362;12.152;2023-03-01T08:45:34;1.90;;;0.63;;
19301;SDS011;9785;59.362;12.152;2023-03-01T08:48:04;0.60;;;0.60;;
19301;SDS011;9785;59.362;12.152;2023-03-01T08:50:36;0.60;;;0.60;;
19301;SDS011;9785;59.362;12.152;2023-03-01T08:53:07;0.83;;;0.53;;
19301;SDS011;9785;59.362;12.152;2023-03-01T08:55:37;0.47;;;0.47;;
19301;SDS011;9785;59.362;12.152;2023-03-01T08:58:08;0.27;;;0.27;;
19301;SDS011;9785;59.362;12.152;2023-03-01T09:00:37;0.40;;;0.30;;
19301;SDS011;9785;59.362;12.152;2023-03-01T09:03:08;2.23;;;0.53;;
19301;SDS011;9785;59.362;12.152;2023-03-01T09:05:38;0.50;;;0.30;;
19301;SDS011;9785;59.362;12.152;2023-03-01T09:08:09;0.67;;;0.40;;
19301;SDS011;9785;59.362;12.152;2023-03-01T09:10:40;0.50;;;0.50;;
19301;SDS011;9785;59.362;12.152;2023-03-01T09:13:12;0.30;;;0.17;;
19301;SDS011;9785;59.362;12.152;2023-03-01T09:15:41;0.80;;;0.30;;
19301;SDS011;9785;59.362;12.152;2023-03-01T09:18:12;0.13;;;0.13;;
19301;SDS011;9785;59.362;12.152;2023-03-01T09:20:42;0.40;;;0.20;;
19301;SDS011;9785;59.362;12.152;2023-03-01T09:23:11;0.43;;;0.30;;
19301;SDS011;9785;59.362;12.152;2023-03-01T09:25:40;0.30;;;0.30;;
19301;SDS011;9785;59.362;12.152;2023-03-01T09:28:09;2.10;;;0.30;;
19301;SDS011;9785;59.362;12.152;2023-03-01T09:30:57;0.23;;;0.17;;
19301;SDS011;9785;59.362;12.152;2023-03-01T09:33:27;0.10;;;0.10;;
19301;SDS011;9785;59.362;12.152;2023-03-01T09:35:58;1.13;;;0.20;;
19301;SDS011;9785;59.362;12.152;2023-03-01T09:38:28;0.10;;;0.10;;
19301;SDS011;9785;59.362;12.152;2023-03-01T09:41:01;2.73;;;0.30;;
19301;SDS011;9785;59.362;12.152;2023-03-01T09:43:33;0.10;;;0.10;;
19301;SDS011;9785;59.362;12.152;2023-03-01T09:46:06;0.13;;;0.10;;
19301;SDS011;9785;59.362;12.152;2023-03-01T09:48:41;2.10;;;0.27;;
19301;SDS011;9785;59.362;12.152;2023-03-01T09:51:14;0.27;;;0.13;;
19301;SDS011;9785;59.362;12.152;2023-03-01T09:53:43;0.30;;;0.20;;
19301;SDS011;9785;59.362;12.152;2023-03-01T09:56:16;1.00;;;0.10;;
19301;SDS011;9785;59.362;12.152;2023-03-01T09:58:50;0.30;;;0.20;;
19301;SDS011;9785;59.362;12.152;2023-03-01T10:01:30;0.20;;;0.20;;
19301;SDS011;9785;59.362;12.152;2023-03-01T10:04:08;0.50;;;0.10;;
19301;SDS011;9785;59.362;12.152;2023-03-01T10:06:44;0.43;;;0.13;;
19301;SDS011;9785;59.362;12.152;2023-03-01T10:09:19;0.20;;;0.20;;
19301;SDS011;9785;59.362;12.152;2023-03-01T10:11:51;0.80;;;0.30;;
19301;SDS011;9785;59.362;12.152;2023-03-01T10:14:27;0.20;;;0.20;;
19301;SDS011;9785;59.362;12.152;2023-03-01T10:16:59;2.50;;;1.70;;
19301;SDS011;9785;59.362;12.152;2023-03-01T10:19:36;2.03;;;0.30;;
19301;SDS011;9785;59.362;12.152;2023-03-01T10:22:12;0.10;;;0.10;;
19301;SDS011;9785;59.362;12.152;2023-03-01T10:24:43;0.30;;;0.30;;
19301;SDS011;9785;59.362;12.152;2023-03-01T10:27:17;0.20;;;0.17;;
19301;SDS011;9785;59.362;12.152;2023-03-01T10:29:50;0.20;;;0.17;;
19301;SDS011;9785;59.362;12.152;2023-03-01T10:32:29;0.77;;;0.17;;
19301;SDS011;9785;59.362;12.152;2023-03-01T10:35:16;0.20;;;0.20;;
19301;SDS011;9785;59.362;12.152;2023-03-01T10:40:30;0.37;;;0.30;;
19301;SDS011;9785;59.362;12.152;2023-03-01T10:43:02;0.10;;;0.10;;
19301;SDS011;9785;59.362;12.152;2023-03-01T10:45:36;0.20;;;0.20;;
19301;SDS011;9785;59.362;12.152;2023-03-01T10:48:08;0.40;;;0.30;;
19301;SDS011;9785;59.362;12.152;2023-03-01T10:50:43;0.10;;;0.10;;
19301;SDS011;9785;59.362;12.152;2023-03-01T10:56:02;0.70;;;0.17;;
19301;SDS011;9785;59.362;12.152;2023-03-01T10:58:33;0.13;;;0.00;;
19301;SDS011;9785;59.362;12.152;2023-03-01T11:01:06;0.10;;;0.10;;
19301;SDS011;9785;59.362;12.152;2023-03-01T11:04:09;0.10;;;0.10;;
19301;SDS011;9785;59.362;12.152;2023-03-01T11:06:43;1.70;;;0.10;;
19301;SDS011;9785;59.362;12.152;2023-03-01T11:09:30;0.00;;;0.00;;
19301;SDS011;9785;59.362;12.152;2023-03-01T11:12:11;0.13;;;0.13;;
19301;SDS011;9785;59.362;12.152;2023-03-01T11:14:45;0.00;;;0.00;;
19301;SDS011;9785;59.362;12.152;2023-03-01T11:17:18;0.10;;;0.10;;
19301;SDS011;9785;59.362;12.152;2023-03-01T11:20:04;0.10;;;0.10;;
19301;SDS011;9785;59.362;12.152;2023-03-01T11:22:41;0.20;;;0.20;;
19301;SDS011;9785;59.362;12.152;2023-03-01T11:25:13;1.20;;;0.67;;
19301;SDS011;9785;59.362;12.152;2023-03-01T11:27:46;0.20;;;0.20;;
19301;SDS011;9785;59.362;12.152;2023-03-01T11:30:19;0.10;;;0.10;;
19301;SDS011;9785;59.362;12.152;2023-03-01T11:32:51;0.13;;;0.13;;
19301;SDS011;9785;59.362;12.152;2023-03-01T11:35:23;0.07;;;0.07;;
19301;SDS011;9785;59.362;12.152;2023-03-01T11:38:02;0.10;;;0.10;;
19301;SDS011;9785;59.362;12.152;2023-03-01T11:40:34;0.03;;;0.03;;
19301;SDS011;9785;59.362;12.152;2023-03-01T11:43:11;0.00;;;0.00;;
19301;SDS011;9785;59.362;12.152;2023-03-01T11:45:53;0.00;;;0.00;;
19301;SDS011;9785;59.362;12.152;2023-03-01T11:48:34;0.10;;;0.10;;
19301;SDS011;9785;59.362;12.152;2023-03-01T11:51:17;0.10;;;0.10;;
19301;SDS011;9785;59.362;12.152;2023-03-01T11:56:49;0.20;;;0.00;;
19301;SDS011;9785;59.362;12.152;2023-03-01T12:02:22;0.27;;;0.20;;
19301;SDS011;9785;59.362;12.152;2023-03-01T12:05:04;0.17;;;0.17;;
19301;SDS011;9785;59.362;12.152;2023-03-01T12:07:42;0.20;;;0.20;;
19301;SDS011;9785;59.362;12.152;2023-03-01T12:10:20;0.10;;;0.10;;
19301;SDS011;9785;59.362;12.152;2023-03-01T12:15:48;0.17;;;0.10;;
19301;SDS011;9785;59.362;12.152;2023-03-01T12:21:06;0.10;;;0.10;;
19301;SDS011;9785;59.362;12.152;2023-03-01T12:23:44;0.10;;;0.10;;
19301;SDS011;9785;59.362;12.152;2023-03-01T12:26:20;0.00;;;0.00;;
19301;SDS011;9785;59.362;12.152;2023-03-01T12:28:55;0.03;;;0.03;;
19301;SDS011;9785;59.362;12.152;2023-03-01T12:34:31;0.10;;;0.10;;
19301;SDS011;9785;59.362;12.152;2023-03-01T12:37:12;0.97;;;0.10;;
19301;SDS011;9785;59.362;12.152;2023-03-01T12:39:50;0.00;;;0.00;;
19301;SDS011;9785;59.362;12.152;2023-03-01T12:42:22;2.27;;;0.20;;
19301;SDS011;9785;59.362;12.152;2023-03-01T12:45:06;0.10;;;;;
19301;SDS011;9785;59.362;12.152;2023-03-01T12:47:49;0.10;;;0.10;;
19301;SDS011;9785;59.362;12.152;2023-03-01T12:50:28;0.00;;;0.00;;
19301;SDS011;9785;59.362;12.152;2023-03-01T12:53:00;0.10;;;0.10;;
19301;SDS011;9785;59.362;12.152;2023-03-01T12:55:29;0.20;;;0.10;;
19301;SDS011;9785;59.362;12.152;2023-03-01T12:58:01;0.33;;;0.00;;
19301;SDS011;9785;59.362;12.152;2023-03-01T13:00:35;0.53;;;0.10;;
19301;SDS011;9785;59.362;12.152;2023-03-01T13:03:12;0.10;;;0.10;;
19301;SDS011;9785;59.362;12.152;2023-03-01T13:05:50;0.10;;;0.10;;
19301;SDS011;9785;59.362;12.152;2023-03-01T13:08:27;0.20;;;0.10;;
19301;SDS011;9785;59.362;12.152;2023-03-01T13:11:01;0.10;;;0.10;;
19301;SDS011;9785;59.362;12.152;2023-03-01T13:13:31;0.00;;;0.00;;
19301;SDS011;9785;59.362;12.152;2023-03-01T13:18:48;0.00;;;0.00;;
19301;SDS011;9785;59.362;12.152;2023-03-01T13:21:30;0.20;;;0.20;;
19301;SDS011;9785;59.362;12.152;2023-03-01T13:24:03;0.00;;;0.00;;
19301;SDS011;9785;59.362;12.152;2023-03-01T13:26:38;0.00;;;0.00;;
19301;SDS011;9785;59.362;12.152;2023-03-01T13:29:29;0.00;;;0.00;;
19301;SDS011;9785;59.362;12.152;2023-03-01T13:32:21;0.10;;;0.10;;
19301;SDS011;9785;59.362;12.152;2023-03-01T13:37:53;0.00;;;0.00;;
19301;SDS011;9785;59.362;12.152;2023-03-01T13:40:59;0.10;;;0.00;;
19301;SDS011;9785;59.362;12.152;2023-03-01T13:43:30;0.10;;;0.10;;
19301;SDS011;9785;59.362;12.152;2023-03-01T13:46:07;0.00;;;0.00;;
19301;SDS011;9785;59.362;12.152;2023-03-01T13:48:42;0.00;;;0.00;;
19301;SDS011;9785;59.362;12.152;2023-03-01T13:51:11;0.00;;;0.00;;
19301;SDS011;9785;59.362;12.152;2023-03-01T13:53:43;0.07;;;0.07;;
19301;SDS011;9785;59.362;12.152;2023-03-01T13:56:21;0.00;;;0.00;;
19301;SDS011;9785;59.362;12.152;2023-03-01T13:58:55;0.10;;;0.10;;
19301;SDS011;9785;59.362;12.152;2023-03-01T14:01:32;0.27;;;0.20;;
19301;SDS011;9785;59.362;12.152;2023-03-01T14:04:14;0.67;;;0.10;;
19301;SDS011;9785;59.362;12.152;2023-03-01T14:06:47;0.17;;;0.17;;
19301;SDS011;9785;59.362;12.152;2023-03-01T14:09:21;3.30;;;0.30;;
19301;SDS011;9785;59.362;12.152;2023-03-01T14:12:09;1.30;;;0.10;;
19301;SDS011;9785;59.362;12.152;2023-03-01T14:14:52;0.23;;;0.10;;
19301;SDS011;9785;59.362;12.152;2023-03-01T14:20:28;0.10;;;0.10;;
19301;SDS011;9785;59.362;12.152;2023-03-01T14:22:59;1.83;;;0.13;;
19301;SDS011;9785;59.362;12.152;2023-03-01T14:25:30;0.23;;;0.10;;
19301;SDS011;9785;59.362;12.152;2023-03-01T14:28:01;0.30;;;0.17;;
19301;SDS011;9785;59.362;12.152;2023-03-01T14:30:32;0.20;;;0.20;;
19301;SDS011;9785;59.362;12.152;2023-03-01T14:33:05;0.77;;;0.13;;
19301;SDS011;9785;59.362;12.152;2023-03-01T14:35:36;0.10;;;0.10;;
19301;SDS011;9785;59.362;12.152;2023-03-01T14:38:19;0.30;;;0.30;;
19301;SDS011;9785;59.362;12.152;2023-03-01T14:40:49;0.10;;;0.10;;
19301;SDS011;9785;59.362;12.152;2023-03-01T14:43:22;0.10;;;0.10;;
19301;SDS011;9785;59.362;12.152;2023-03-01T14:45:57;0.10;;;0.10;;
19301;SDS011;9785;59.362;12.152;2023-03-01T14:48:30;0.00;;;0.00;;
19301;SDS011;9785;59.362;12.152;2023-03-01T14:51:06;0.77;;;0.20;;
19301;SDS011;9785;59.362;12.152;2023-03-01T14:53:37;7.23;;;0.23;;
19301;SDS011;9785;59.362;12.152;2023-03-01T14:56:17;0.63;;;0.20;;
19301;SDS011;9785;59.362;12.152;2023-03-01T14:58:50;0.33;;;0.23;;
19301;SDS011;9785;59.362;12.152;2023-03-01T15:01:25;0.33;;;0.20;;
19301;SDS011;9785;59.362;12.152;2023-03-01T15:03:56;0.10;;;0.10;;
19301;SDS011;9785;59.362;12.152;2023-03-01T15:06:33;0.93;;;0.10;;
19301;SDS011;9785;59.362;12.152;2023-03-01T15:09:04;2.10;;;0.30;;
19301;SDS011;9785;59.362;12.152;2023-03-01T15:11:34;2.97;;;0.43;;
19301;SDS011;9785;59.362;12.152;2023-03-01T15:14:05;0.73;;;0.20;;
19301;SDS011;9785;59.362;12.152;2023-03-01T15:16:56;0.23;;;0.23;;
19301;SDS011;9785;59.362;12.152;2023-03-01T15:19:26;1.50;;;0.20;;
19301;SDS011;9785;59.362;12.152;2023-03-01T15:21:58;0.10;;;0.10;;
19301;SDS011;9785;59.362;12.152;2023-03-01T15:24:40;0.20;;;0.10;;
19301;SDS011;9785;59.362;12.152;2023-03-01T15:27:14;0.20;;;0.20;;
19301;SDS011;9785;59.362;12.152;2023-03-01T15:29:49;0.07;;;0.07;;
19301;SDS011;9785;59.362;12.152;2023-03-01T15:32:26;0.30;;;0.20;;
19301;SDS011;9785;59.362;12.152;2023-03-01T15:34:58;0.00;;;0.00;;
19301;SDS011;9785;59.362;12.152;2023-03-01T15:37:39;0.23;;;0.23;;
19301;SDS011;9785;59.362;12.152;2023-03-01T15:40:21;0.63;;;0.30;;
19301;SDS011;9785;59.362;12.152;2023-03-01T15:42:58;0.70;;;0.30;;
19301;SDS011;9785;59.362;12.152;2023-03-01T15:45:28;0.20;;;0.20;;
19301;SDS011;9785;59.362;12.152;2023-03-01T15:47:57;0.20;;;0.20;;
19301;SDS011;9785;59.362;12.152;2023-03-01T15:50:30;0.10;;;0.10;;
19301;SDS011;9785;59.362;12.152;2023-03-01T15:53:05;1.23;;;0.20;;